ペトロパブロフスク・カムチャツキー の空港の天気 - METARとTAF

ペトロパブロフスク・カムチャツキー空港 ( UHPP / PKC ) - ロシア ペトロパブロフスク・カムチャツキー
飛行場実況気象(Metar)
観測時間05/28 22:00 MAGT (05/28 11:00 UTC)
風向・風速南 3m/s
視程10km以上
天気現象
なし
気温6℃
湿度100%
気圧1017hPa
METARUHPP 281100Z 18003MPS CAVOK 06/06 Q1017 R16R/CLRD70 NOSIG RMK QFE759/1012
過去の天気等 Google飛行場航空写真 Wunderground天気予報

過去48時間のMETAR

飛行場予報(TAF)
発表時間: 5/28 21:53 MAGT (5/28 10:53 UTC)
予報対象時間: 28日23時 MAGT ~ 30日5時 MAGT
風向・風速南 3m/s 瞬間風速 12m/s
視程10km以上
全天の4割程度の雲 雲底高度 1220m
28日23時 MAGT ~ 29日9時 MAGT に一時的に
視程700m
天気現象
全天を覆う雲 鉛直視程 60m
29日21時 MAGT ~ 30日5時 MAGT に一時的に
視程900m
天気現象
全天を覆う雲 鉛直視程 90m
TAF UHPP 281053Z 2812/2918 18003G12MPS 9999 SCT040
TEMPO 2812/2822 0700 FG VV002
TEMPO 2910/2918 0900 FG VV003